sensor_id;sensor_type;location;lat;lon;timestamp;P1;durP1;ratioP1;P2;durP2;ratioP2
79761;SDS011;69249;42.122;24.734;2023-06-22T00:00:48;9.30;;;8.15;;
79761;SDS011;69249;42.122;24.734;2023-06-22T00:03:15;11.50;;;9.60;;
79761;SDS011;69249;42.122;24.734;2023-06-22T00:05:42;10.93;;;9.55;;
79761;SDS011;69249;42.122;24.734;2023-06-22T00:08:08;9.63;;;7.95;;
79761;SDS011;69249;42.122;24.734;2023-06-22T00:10:34;11.75;;;8.95;;
79761;SDS011;69249;42.122;24.734;2023-06-22T00:13:00;10.52;;;9.48;;
79761;SDS011;69249;42.122;24.734;2023-06-22T00:15:26;10.70;;;9.65;;
79761;SDS011;69249;42.122;24.734;2023-06-22T00:17:52;10.80;;;9.65;;
79761;SDS011;69249;42.122;24.734;2023-06-22T00:20:17;12.70;;;10.18;;
79761;SDS011;69249;42.122;24.734;2023-06-22T00:22:43;13.80;;;10.35;;
79761;SDS011;69249;42.122;24.734;2023-06-22T00:25:09;10.48;;;9.48;;
79761;SDS011;69249;42.122;24.734;2023-06-22T00:27:35;10.57;;;9.60;;
79761;SDS011;69249;42.122;24.734;2023-06-22T00:30:02;11.50;;;10.27;;
79761;SDS011;69249;42.122;24.734;2023-06-22T00:32:28;9.80;;;8.80;;
79761;SDS011;69249;42.122;24.734;2023-06-22T00:34:54;10.38;;;9.38;;
79761;SDS011;69249;42.122;24.734;2023-06-22T00:37:19;10.13;;;9.07;;
79761;SDS011;69249;42.122;24.734;2023-06-22T00:39:53;9.65;;;8.57;;
79761;SDS011;69249;42.122;24.734;2023-06-22T00:42:20;12.27;;;9.07;;
79761;SDS011;69249;42.122;24.734;2023-06-22T00:44:45;9.95;;;8.75;;
79761;SDS011;69249;42.122;24.734;2023-06-22T00:47:11;9.52;;;8.60;;
79761;SDS011;69249;42.122;24.734;2023-06-22T00:49:40;9.90;;;8.77;;
79761;SDS011;69249;42.122;24.734;2023-06-22T00:52:07;10.80;;;8.05;;
79761;SDS011;69249;42.122;24.734;2023-06-22T00:54:37;9.25;;;8.40;;
79761;SDS011;69249;42.122;24.734;2023-06-22T00:57:03;10.95;;;8.60;;
79761;SDS011;69249;42.122;24.734;2023-06-22T00:59:29;10.60;;;8.07;;
79761;SDS011;69249;42.122;24.734;2023-06-22T01:01:57;13.00;;;8.13;;
79761;SDS011;69249;42.122;24.734;2023-06-22T01:04:34;10.40;;;8.57;;
79761;SDS011;69249;42.122;24.734;2023-06-22T01:07:04;10.02;;;8.63;;
79761;SDS011;69249;42.122;24.734;2023-06-22T01:09:42;11.15;;;8.10;;
79761;SDS011;69249;42.122;24.734;2023-06-22T01:12:30;10.50;;;8.30;;
79761;SDS011;69249;42.122;24.734;2023-06-22T01:15:16;10.63;;;9.35;;
79761;SDS011;69249;42.122;24.734;2023-06-22T01:17:47;10.73;;;9.18;;
79761;SDS011;69249;42.122;24.734;2023-06-22T01:20:14;10.52;;;9.52;;
79761;SDS011;69249;42.122;24.734;2023-06-22T01:25:46;14.95;;;10.60;;
79761;SDS011;69249;42.122;24.734;2023-06-22T01:31:13;11.13;;;10.13;;
79761;SDS011;69249;42.122;24.734;2023-06-22T01:33:46;15.15;;;10.00;;
79761;SDS011;69249;42.122;24.734;2023-06-22T01:36:16;13.80;;;9.90;;
79761;SDS011;69249;42.122;24.734;2023-06-22T01:38:43;10.77;;;9.77;;
79761;SDS011;69249;42.122;24.734;2023-06-22T01:41:10;12.07;;;10.35;;
79761;SDS011;69249;42.122;24.734;2023-06-22T01:43:37;10.98;;;9.98;;
79761;SDS011;69249;42.122;24.734;2023-06-22T01:46:03;12.25;;;10.48;;
79761;SDS011;69249;42.122;24.734;2023-06-22T01:48:29;12.32;;;11.05;;
79761;SDS011;69249;42.122;24.734;2023-06-22T01:50:56;12.40;;;11.13;;
79761;SDS011;69249;42.122;24.734;2023-06-22T01:53:22;14.38;;;11.35;;
79761;SDS011;69249;42.122;24.734;2023-06-22T01:55:48;13.93;;;12.48;;
79761;SDS011;69249;42.122;24.734;2023-06-22T01:58:14;13.38;;;11.93;;
79761;SDS011;69249;42.122;24.734;2023-06-22T02:00:41;13.23;;;12.02;;
79761;SDS011;69249;42.122;24.734;2023-06-22T02:03:14;13.73;;;12.25;;
79761;SDS011;69249;42.122;24.734;2023-06-22T02:05:55;13.85;;;12.45;;
79761;SDS011;69249;42.122;24.734;2023-06-22T02:08:30;13.10;;;11.50;;
79761;SDS011;69249;42.122;24.734;2023-06-22T02:11:00;13.82;;;12.52;;
79761;SDS011;69249;42.122;24.734;2023-06-22T02:13:27;14.10;;;12.23;;
79761;SDS011;69249;42.122;24.734;2023-06-22T02:15:53;14.10;;;12.15;;
79761;SDS011;69249;42.122;24.734;2023-06-22T02:18:19;12.50;;;11.30;;
79761;SDS011;69249;42.122;24.734;2023-06-22T02:20:45;12.63;;;11.43;;
79761;SDS011;69249;42.122;24.734;2023-06-22T02:23:11;14.90;;;12.05;;
79761;SDS011;69249;42.122;24.734;2023-06-22T02:25:36;13.63;;;12.32;;
79761;SDS011;69249;42.122;24.734;2023-06-22T02:28:02;13.60;;;12.20;;
79761;SDS011;69249;42.122;24.734;2023-06-22T02:30:28;20.02;;;12.25;;
79761;SDS011;69249;42.122;24.734;2023-06-22T02:32:54;12.60;;;11.15;;
79761;SDS011;69249;42.122;24.734;2023-06-22T02:35:27;15.25;;;11.82;;
79761;SDS011;69249;42.122;24.734;2023-06-22T02:37:57;12.38;;;11.38;;
79761;SDS011;69249;42.122;24.734;2023-06-22T02:40:24;12.60;;;11.30;;
79761;SDS011;69249;42.122;24.734;2023-06-22T02:42:50;11.90;;;10.80;;
79761;SDS011;69249;42.122;24.734;2023-06-22T02:45:16;12.20;;;10.98;;
79761;SDS011;69249;42.122;24.734;2023-06-22T02:47:41;14.18;;;11.93;;
79761;SDS011;69249;42.122;24.734;2023-06-22T02:50:07;13.35;;;12.02;;
79761;SDS011;69249;42.122;24.734;2023-06-22T02:52:33;14.48;;;12.07;;
79761;SDS011;69249;42.122;24.734;2023-06-22T02:54:59;13.52;;;11.60;;
79761;SDS011;69249;42.122;24.734;2023-06-22T02:57:24;11.98;;;10.88;;
79761;SDS011;69249;42.122;24.734;2023-06-22T02:59:50;12.63;;;11.30;;
79761;SDS011;69249;42.122;24.734;2023-06-22T03:02:16;11.18;;;10.07;;
79761;SDS011;69249;42.122;24.734;2023-06-22T03:04:42;11.85;;;10.65;;
79761;SDS011;69249;42.122;24.734;2023-06-22T03:07:08;12.57;;;11.38;;
79761;SDS011;69249;42.122;24.734;2023-06-22T03:09:34;12.65;;;11.48;;
79761;SDS011;69249;42.122;24.734;2023-06-22T03:11:59;12.38;;;11.07;;
79761;SDS011;69249;42.122;24.734;2023-06-22T03:14:27;13.55;;;12.27;;
79761;SDS011;69249;42.122;24.734;2023-06-22T03:16:52;12.88;;;11.57;;
79761;SDS011;69249;42.122;24.734;2023-06-22T03:19:18;14.75;;;10.57;;
79761;SDS011;69249;42.122;24.734;2023-06-22T03:21:45;11.50;;;10.50;;
79761;SDS011;69249;42.122;24.734;2023-06-22T03:24:10;14.15;;;11.02;;
79761;SDS011;69249;42.122;24.734;2023-06-22T03:26:36;13.63;;;10.02;;
79761;SDS011;69249;42.122;24.734;2023-06-22T03:29:02;10.48;;;9.52;;
79761;SDS011;69249;42.122;24.734;2023-06-22T03:31:28;11.32;;;10.20;;
79761;SDS011;69249;42.122;24.734;2023-06-22T03:33:53;10.27;;;9.25;;
79761;SDS011;69249;42.122;24.734;2023-06-22T03:36:19;11.27;;;9.30;;
79761;SDS011;69249;42.122;24.734;2023-06-22T03:38:45;10.80;;;9.68;;
79761;SDS011;69249;42.122;24.734;2023-06-22T03:41:12;11.65;;;10.35;;
79761;SDS011;69249;42.122;24.734;2023-06-22T03:43:37;11.93;;;10.25;;
79761;SDS011;69249;42.122;24.734;2023-06-22T03:46:03;14.02;;;11.20;;
79761;SDS011;69249;42.122;24.734;2023-06-22T03:48:29;12.38;;;11.23;;
79761;SDS011;69249;42.122;24.734;2023-06-22T03:50:54;12.55;;;11.45;;
79761;SDS011;69249;42.122;24.734;2023-06-22T03:53:20;12.73;;;11.63;;
79761;SDS011;69249;42.122;24.734;2023-06-22T03:55:49;16.27;;;11.90;;
79761;SDS011;69249;42.122;24.734;2023-06-22T03:58:16;13.15;;;10.63;;
79761;SDS011;69249;42.122;24.734;2023-06-22T04:00:46;12.80;;;11.43;;
79761;SDS011;69249;42.122;24.734;2023-06-22T04:03:13;14.27;;;11.45;;
79761;SDS011;69249;42.122;24.734;2023-06-22T04:05:39;17.20;;;11.30;;
79761;SDS011;69249;42.122;24.734;2023-06-22T04:08:05;14.30;;;11.18;;
79761;SDS011;69249;42.122;24.734;2023-06-22T04:10:31;15.15;;;11.57;;
79761;SDS011;69249;42.122;24.734;2023-06-22T04:12:57;14.85;;;10.80;;
79761;SDS011;69249;42.122;24.734;2023-06-22T04:15:22;15.93;;;11.30;;
79761;SDS011;69249;42.122;24.734;2023-06-22T04:17:48;13.65;;;11.25;;
79761;SDS011;69249;42.122;24.734;2023-06-22T04:20:14;11.82;;;10.63;;
79761;SDS011;69249;42.122;24.734;2023-06-22T04:22:39;12.57;;;10.18;;
79761;SDS011;69249;42.122;24.734;2023-06-22T04:25:05;12.73;;;10.48;;
79761;SDS011;69249;42.122;24.734;2023-06-22T04:27:32;11.25;;;10.10;;
79761;SDS011;69249;42.122;24.734;2023-06-22T04:30:05;11.25;;;10.15;;
79761;SDS011;69249;42.122;24.734;2023-06-22T04:32:32;14.57;;;11.10;;
79761;SDS011;69249;42.122;24.734;2023-06-22T04:35:01;16.48;;;10.95;;
79761;SDS011;69249;42.122;24.734;2023-06-22T04:37:27;14.13;;;10.00;;
79761;SDS011;69249;42.122;24.734;2023-06-22T04:39:53;13.57;;;10.07;;
79761;SDS011;69249;42.122;24.734;2023-06-22T04:42:19;11.27;;;10.20;;
79761;SDS011;69249;42.122;24.734;2023-06-22T04:44:45;11.95;;;10.75;;
79761;SDS011;69249;42.122;24.734;2023-06-22T04:47:10;15.02;;;10.38;;
79761;SDS011;69249;42.122;24.734;2023-06-22T04:49:36;11.52;;;10.27;;
79761;SDS011;69249;42.122;24.734;2023-06-22T04:54:29;14.23;;;10.35;;
79761;SDS011;69249;42.122;24.734;2023-06-22T04:56:58;11.55;;;10.35;;
79761;SDS011;69249;42.122;24.734;2023-06-22T04:59:28;15.27;;;10.15;;
79761;SDS011;69249;42.122;24.734;2023-06-22T05:02:01;14.18;;;10.55;;
79761;SDS011;69249;42.122;24.734;2023-06-22T05:04:30;15.77;;;10.60;;
79761;SDS011;69249;42.122;24.734;2023-06-22T05:07:00;11.55;;;10.18;;
79761;SDS011;69249;42.122;24.734;2023-06-22T05:09:30;15.35;;;10.20;;
79761;SDS011;69249;42.122;24.734;2023-06-22T05:11:58;16.43;;;11.10;;
79761;SDS011;69249;42.122;24.734;2023-06-22T05:14:29;15.48;;;10.38;;
79761;SDS011;69249;42.122;24.734;2023-06-22T05:16:58;12.88;;;11.13;;
79761;SDS011;69249;42.122;24.734;2023-06-22T05:19:28;12.80;;;10.82;;
79761;SDS011;69249;42.122;24.734;2023-06-22T05:22:04;13.65;;;10.10;;
79761;SDS011;69249;42.122;24.734;2023-06-22T05:24:31;15.38;;;10.48;;
79761;SDS011;69249;42.122;24.734;2023-06-22T05:26:57;13.70;;;10.65;;
79761;SDS011;69249;42.122;24.734;2023-06-22T05:29:22;19.75;;;10.75;;
79761;SDS011;69249;42.122;24.734;2023-06-22T05:31:48;10.73;;;9.63;;
79761;SDS011;69249;42.122;24.734;2023-06-22T05:34:14;16.83;;;10.00;;
79761;SDS011;69249;42.122;24.734;2023-06-22T05:36:40;16.02;;;10.35;;
79761;SDS011;69249;42.122;24.734;2023-06-22T05:39:12;12.07;;;9.98;;
79761;SDS011;69249;42.122;24.734;2023-06-22T05:41:39;13.90;;;9.80;;
79761;SDS011;69249;42.122;24.734;2023-06-22T05:44:07;18.40;;;9.15;;
79761;SDS011;69249;42.122;24.734;2023-06-22T05:46:36;12.98;;;9.77;;
79761;SDS011;69249;42.122;24.734;2023-06-22T05:49:04;10.38;;;9.35;;
79761;SDS011;69249;42.122;24.734;2023-06-22T05:51:32;13.27;;;8.77;;
79761;SDS011;69249;42.122;24.734;2023-06-22T05:53:58;12.10;;;8.57;;
79761;SDS011;69249;42.122;24.734;2023-06-22T05:56:24;9.73;;;8.75;;
79761;SDS011;69249;42.122;24.734;2023-06-22T05:58:50;11.30;;;8.48;;
79761;SDS011;69249;42.122;24.734;2023-06-22T06:01:18;14.55;;;9.02;;
79761;SDS011;69249;42.122;24.734;2023-06-22T06:03:49;11.23;;;8.40;;
79761;SDS011;69249;42.122;24.734;2023-06-22T06:06:17;12.50;;;8.75;;
79761;SDS011;69249;42.122;24.734;2023-06-22T06:08:43;8.95;;;7.95;;
79761;SDS011;69249;42.122;24.734;2023-06-22T06:11:08;9.43;;;8.40;;
79761;SDS011;69249;42.122;24.734;2023-06-22T06:13:34;12.10;;;8.45;;
79761;SDS011;69249;42.122;24.734;2023-06-22T06:16:00;10.80;;;8.68;;
79761;SDS011;69249;42.122;24.734;2023-06-22T06:18:26;13.30;;;9.18;;
79761;SDS011;69249;42.122;24.734;2023-06-22T06:20:52;9.57;;;8.25;;
79761;SDS011;69249;42.122;24.734;2023-06-22T06:23:22;9.05;;;8.15;;
79761;SDS011;69249;42.122;24.734;2023-06-22T06:25:47;10.25;;;8.65;;
79761;SDS011;69249;42.122;24.734;2023-06-22T06:28:13;13.85;;;8.32;;
79761;SDS011;69249;42.122;24.734;2023-06-22T06:30:39;9.05;;;7.97;;
79761;SDS011;69249;42.122;24.734;2023-06-22T06:33:06;10.55;;;8.15;;
79761;SDS011;69249;42.122;24.734;2023-06-22T06:35:34;9.25;;;7.95;;
79761;SDS011;69249;42.122;24.734;2023-06-22T06:38:00;11.85;;;8.35;;
79761;SDS011;69249;42.122;24.734;2023-06-22T06:40:25;9.35;;;8.35;;
79761;SDS011;69249;42.122;24.734;2023-06-22T06:42:51;10.45;;;8.00;;
79761;SDS011;69249;42.122;24.734;2023-06-22T06:45:20;12.25;;;8.45;;
79761;SDS011;69249;42.122;24.734;2023-06-22T06:47:48;10.25;;;7.80;;
79761;SDS011;69249;42.122;24.734;2023-06-22T06:50:15;9.02;;;8.27;;
79761;SDS011;69249;42.122;24.734;2023-06-22T06:52:41;11.52;;;7.70;;
79761;SDS011;69249;42.122;24.734;2023-06-22T06:55:07;8.85;;;7.80;;
79761;SDS011;69249;42.122;24.734;2023-06-22T06:57:36;9.73;;;7.80;;
79761;SDS011;69249;42.122;24.734;2023-06-22T07:00:07;9.73;;;7.95;;
79761;SDS011;69249;42.122;24.734;2023-06-22T07:02:37;10.68;;;8.07;;
79761;SDS011;69249;42.122;24.734;2023-06-22T07:05:04;10.45;;;7.63;;
79761;SDS011;69249;42.122;24.734;2023-06-22T07:07:31;9.20;;;7.70;;
79761;SDS011;69249;42.122;24.734;2023-06-22T07:10:07;12.90;;;7.80;;
79761;SDS011;69249;42.122;24.734;2023-06-22T07:12:36;8.55;;;7.68;;
79761;SDS011;69249;42.122;24.734;2023-06-22T07:15:11;12.63;;;8.00;;
79761;SDS011;69249;42.122;24.734;2023-06-22T07:17:48;8.98;;;7.95;;
79761;SDS011;69249;42.122;24.734;2023-06-22T07:20:17;10.20;;;8.27;;
79761;SDS011;69249;42.122;24.734;2023-06-22T07:22:48;11.25;;;7.65;;
79761;SDS011;69249;42.122;24.734;2023-06-22T07:25:17;11.05;;;8.07;;
79761;SDS011;69249;42.122;24.734;2023-06-22T07:27:56;12.80;;;8.90;;
79761;SDS011;69249;42.122;24.734;2023-06-22T07:30:23;9.05;;;8.13;;
79761;SDS011;69249;42.122;24.734;2023-06-22T07:32:48;8.38;;;7.53;;
79761;SDS011;69249;42.122;24.734;2023-06-22T07:35:14;15.25;;;8.50;;
79761;SDS011;69249;42.122;24.734;2023-06-22T07:37:43;10.02;;;7.72;;
79761;SDS011;69249;42.122;24.734;2023-06-22T07:40:09;9.85;;;7.65;;
79761;SDS011;69249;42.122;24.734;2023-06-22T07:42:35;10.15;;;8.00;;
79761;SDS011;69249;42.122;24.734;2023-06-22T07:45:10;10.38;;;7.63;;
79761;SDS011;69249;42.122;24.734;2023-06-22T07:47:39;8.02;;;7.10;;
79761;SDS011;69249;42.122;24.734;2023-06-22T07:50:05;8.30;;;7.38;;
79761;SDS011;69249;42.122;24.734;2023-06-22T07:52:31;8.50;;;6.88;;
79761;SDS011;69249;42.122;24.734;2023-06-22T07:54:57;9.00;;;6.93;;
79761;SDS011;69249;42.122;24.734;2023-06-22T07:57:23;8.95;;;6.80;;
79761;SDS011;69249;42.122;24.734;2023-06-22T08:00:00;10.65;;;6.63;;
79761;SDS011;69249;42.122;24.734;2023-06-22T08:02:26;8.77;;;6.00;;
79761;SDS011;69249;42.122;24.734;2023-06-22T08:04:52;9.68;;;6.22;;
79761;SDS011;69249;42.122;24.734;2023-06-22T08:07:17;6.80;;;6.13;;
79761;SDS011;69249;42.122;24.734;2023-06-22T08:09:48;10.68;;;6.50;;
79761;SDS011;69249;42.122;24.734;2023-06-22T08:12:14;8.50;;;6.45;;
79761;SDS011;69249;42.122;24.734;2023-06-22T08:14:41;6.57;;;5.95;;
79761;SDS011;69249;42.122;24.734;2023-06-22T08:17:08;7.30;;;6.65;;
79761;SDS011;69249;42.122;24.734;2023-06-22T08:19:34;7.75;;;6.55;;
79761;SDS011;69249;42.122;24.734;2023-06-22T08:22:02;7.20;;;6.50;;
79761;SDS011;69249;42.122;24.734;2023-06-22T08:24:30;7.63;;;6.93;;
79761;SDS011;69249;42.122;24.734;2023-06-22T08:26:56;7.60;;;6.78;;
79761;SDS011;69249;42.122;24.734;2023-06-22T08:29:22;7.22;;;6.47;;
79761;SDS011;69249;42.122;24.734;2023-06-22T08:31:50;7.97;;;6.47;;
79761;SDS011;69249;42.122;24.734;2023-06-22T08:34:16;8.35;;;6.90;;
79761;SDS011;69249;42.122;24.734;2023-06-22T08:36:47;7.70;;;6.60;;
79761;SDS011;69249;42.122;24.734;2023-06-22T08:39:16;12.05;;;6.60;;
79761;SDS011;69249;42.122;24.734;2023-06-22T08:41:43;8.57;;;6.28;;
79761;SDS011;69249;42.122;24.734;2023-06-22T08:44:10;8.88;;;6.20;;
79761;SDS011;69249;42.122;24.734;2023-06-22T08:46:35;6.95;;;6.30;;
79761;SDS011;69249;42.122;24.734;2023-06-22T08:49:01;7.50;;;6.80;;
79761;SDS011;69249;42.122;24.734;2023-06-22T08:51:27;6.30;;;5.70;;
79761;SDS011;69249;42.122;24.734;2023-06-22T08:53:54;7.10;;;6.35;;
79761;SDS011;69249;42.122;24.734;2023-06-22T08:56:20;7.13;;;6.05;;
79761;SDS011;69249;42.122;24.734;2023-06-22T08:58:45;8.80;;;6.40;;
79761;SDS011;69249;42.122;24.734;2023-06-22T09:01:11;10.73;;;6.05;;
79761;SDS011;69249;42.122;24.734;2023-06-22T09:03:37;6.65;;;6.00;;
79761;SDS011;69249;42.122;24.734;2023-06-22T09:06:03;6.45;;;5.82;;
79761;SDS011;69249;42.122;24.734;2023-06-22T09:08:28;11.07;;;6.57;;
79761;SDS011;69249;42.122;24.734;2023-06-22T09:10:54;7.22;;;6.72;;
79761;SDS011;69249;42.122;24.734;2023-06-22T09:13:20;6.43;;;5.82;;
79761;SDS011;69249;42.122;24.734;2023-06-22T09:15:47;7.15;;;6.40;;
79761;SDS011;69249;42.122;24.734;2023-06-22T09:18:13;7.00;;;6.07;;
79761;SDS011;69249;42.122;24.734;2023-06-22T09:20:39;8.15;;;6.25;;
79761;SDS011;69249;42.122;24.734;2023-06-22T09:23:28;13.15;;;6.15;;
79761;SDS011;69249;42.122;24.734;2023-06-22T09:25:54;6.82;;;6.32;;
79761;SDS011;69249;42.122;24.734;2023-06-22T09:28:20;6.70;;;6.10;;
79761;SDS011;69249;42.122;24.734;2023-06-22T09:30:46;10.38;;;5.97;;
79761;SDS011;69249;42.122;24.734;2023-06-22T09:33:13;5.85;;;5.40;;
79761;SDS011;69249;42.122;24.734;2023-06-22T09:35:39;6.35;;;5.75;;
79761;SDS011;69249;42.122;24.734;2023-06-22T09:38:04;6.00;;;5.60;;
79761;SDS011;69249;42.122;24.734;2023-06-22T09:40:30;6.20;;;5.40;;
79761;SDS011;69249;42.122;24.734;2023-06-22T09:42:57;6.40;;;5.80;;
79761;SDS011;69249;42.122;24.734;2023-06-22T09:45:23;6.63;;;6.05;;
79761;SDS011;69249;42.122;24.734;2023-06-22T09:47:49;6.45;;;5.72;;
79761;SDS011;69249;42.122;24.734;2023-06-22T09:50:18;6.82;;;6.22;;
79761;SDS011;69249;42.122;24.734;2023-06-22T09:52:44;6.15;;;5.65;;
79761;SDS011;69249;42.122;24.734;2023-06-22T09:55:11;5.80;;;5.30;;
79761;SDS011;69249;42.122;24.734;2023-06-22T09:57:37;6.35;;;5.70;;
79761;SDS011;69249;42.122;24.734;2023-06-22T10:00:12;6.60;;;5.70;;
79761;SDS011;69249;42.122;24.734;2023-06-22T10:02:41;6.38;;;5.88;;
79761;SDS011;69249;42.122;24.734;2023-06-22T10:05:07;7.50;;;5.80;;
79761;SDS011;69249;42.122;24.734;2023-06-22T10:07:33;7.60;;;5.97;;
79761;SDS011;69249;42.122;24.734;2023-06-22T10:10:07;6.78;;;6.18;;
79761;SDS011;69249;42.122;24.734;2023-06-22T10:12:34;6.57;;;5.90;;
79761;SDS011;69249;42.122;24.734;2023-06-22T10:15:00;8.55;;;6.18;;
79761;SDS011;69249;42.122;24.734;2023-06-22T10:17:27;6.57;;;5.90;;
79761;SDS011;69249;42.122;24.734;2023-06-22T10:19:58;6.72;;;6.07;;
79761;SDS011;69249;42.122;24.734;2023-06-22T10:22:26;6.28;;;5.78;;
79761;SDS011;69249;42.122;24.734;2023-06-22T10:24:51;6.20;;;5.70;;
79761;SDS011;69249;42.122;24.734;2023-06-22T10:27:19;6.35;;;5.82;;
79761;SDS011;69249;42.122;24.734;2023-06-22T10:29:45;6.35;;;5.85;;
79761;SDS011;69249;42.122;24.734;2023-06-22T10:32:11;7.07;;;6.40;;
79761;SDS011;69249;42.122;24.734;2023-06-22T10:34:36;7.13;;;6.43;;
79761;SDS011;69249;42.122;24.734;2023-06-22T10:37:02;6.60;;;6.00;;
79761;SDS011;69249;42.122;24.734;2023-06-22T10:39:28;7.47;;;6.50;;
79761;SDS011;69249;42.122;24.734;2023-06-22T10:41:53;6.80;;;6.15;;
79761;SDS011;69249;42.122;24.734;2023-06-22T10:44:21;6.32;;;5.82;;
79761;SDS011;69249;42.122;24.734;2023-06-22T10:46:47;6.47;;;5.88;;
79761;SDS011;69249;42.122;24.734;2023-06-22T10:49:12;6.72;;;6.13;;
79761;SDS011;69249;42.122;24.734;2023-06-22T10:51:38;6.57;;;5.95;;
79761;SDS011;69249;42.122;24.734;2023-06-22T10:54:04;6.38;;;5.80;;
79761;SDS011;69249;42.122;24.734;2023-06-22T10:56:29;6.63;;;6.07;;
79761;SDS011;69249;42.122;24.734;2023-06-22T10:58:55;11.38;;;6.07;;
79761;SDS011;69249;42.122;24.734;2023-06-22T11:01:21;15.98;;;7.00;;
79761;SDS011;69249;42.122;24.734;2023-06-22T11:03:46;8.52;;;6.57;;
79761;SDS011;69249;42.122;24.734;2023-06-22T11:06:12;14.00;;;6.68;;
79761;SDS011;69249;42.122;24.734;2023-06-22T11:08:39;7.10;;;6.50;;
79761;SDS011;69249;42.122;24.734;2023-06-22T11:11:05;6.38;;;5.80;;
79761;SDS011;69249;42.122;24.734;2023-06-22T11:13:31;6.80;;;6.18;;
79761;SDS011;69249;42.122;24.734;2023-06-22T11:15:56;7.30;;;6.18;;
79761;SDS011;69249;42.122;24.734;2023-06-22T11:18:22;6.90;;;6.30;;
79761;SDS011;69249;42.122;24.734;2023-06-22T11:20:48;6.35;;;5.88;;
79761;SDS011;69249;42.122;24.734;2023-06-22T11:23:14;5.93;;;5.47;;
79761;SDS011;69249;42.122;24.734;2023-06-22T11:25:39;6.47;;;5.88;;
79761;SDS011;69249;42.122;24.734;2023-06-22T11:28:07;6.03;;;5.47;;
79761;SDS011;69249;42.122;24.734;2023-06-22T11:30:33;6.30;;;5.57;;
79761;SDS011;69249;42.122;24.734;2023-06-22T11:32:59;6.45;;;5.95;;
79761;SDS011;69249;42.122;24.734;2023-06-22T11:35:25;5.72;;;5.32;;
79761;SDS011;69249;42.122;24.734;2023-06-22T11:37:51;6.30;;;5.80;;
79761;SDS011;69249;42.122;24.734;2023-06-22T11:40:16;6.32;;;5.65;;
79761;SDS011;69249;42.122;24.734;2023-06-22T11:42:43;6.32;;;5.75;;
79761;SDS011;69249;42.122;24.734;2023-06-22T11:45:09;8.57;;;5.65;;
79761;SDS011;69249;42.122;24.734;2023-06-22T11:47:35;7.32;;;6.07;;
79761;SDS011;69249;42.122;24.734;2023-06-22T11:50:01;6.45;;;5.93;;
79761;SDS011;69249;42.122;24.734;2023-06-22T11:52:28;6.93;;;5.57;;
79761;SDS011;69249;42.122;24.734;2023-06-22T11:54:53;6.35;;;5.50;;
79761;SDS011;69249;42.122;24.734;2023-06-22T11:57:19;6.60;;;5.60;;
79761;SDS011;69249;42.122;24.734;2023-06-22T11:59:44;5.65;;;5.15;;
79761;SDS011;69249;42.122;24.734;2023-06-22T12:02:10;7.18;;;5.45;;
79761;SDS011;69249;42.122;24.734;2023-06-22T12:04:36;5.70;;;5.30;;
79761;SDS011;69249;42.122;24.734;2023-06-22T12:07:02;5.70;;;5.30;;
79761;SDS011;69249;42.122;24.734;2023-06-22T12:09:28;6.03;;;5.63;;
79761;SDS011;69249;42.122;24.734;2023-06-22T12:11:54;6.03;;;5.53;;
79761;SDS011;69249;42.122;24.734;2023-06-22T12:14:19;5.72;;;5.22;;
79761;SDS011;69249;42.122;24.734;2023-06-22T12:16:45;6.20;;;5.65;;
79761;SDS011;69249;42.122;24.734;2023-06-22T12:19:11;8.73;;;5.97;;
79761;SDS011;69249;42.122;24.734;2023-06-22T12:21:37;6.55;;;5.93;;
79761;SDS011;69249;42.122;24.734;2023-06-22T12:24:04;6.93;;;6.03;;
79761;SDS011;69249;42.122;24.734;2023-06-22T12:26:30;6.20;;;5.70;;
79761;SDS011;69249;42.122;24.734;2023-06-22T12:28:55;7.72;;;5.75;;
79761;SDS011;69249;42.122;24.734;2023-06-22T12:31:21;7.10;;;6.22;;
79761;SDS011;69249;42.122;24.734;2023-06-22T12:33:46;6.57;;;6.07;;
79761;SDS011;69249;42.122;24.734;2023-06-22T12:36:12;8.18;;;6.13;;
79761;SDS011;69249;42.122;24.734;2023-06-22T12:38:38;6.95;;;6.32;;
79761;SDS011;69249;42.122;24.734;2023-06-22T12:41:03;6.15;;;5.75;;
79761;SDS011;69249;42.122;24.734;2023-06-22T12:43:29;6.90;;;6.40;;
79761;SDS011;69249;42.122;24.734;2023-06-22T12:45:55;7.53;;;6.30;;
79761;SDS011;69249;42.122;24.734;2023-06-22T12:48:21;7.10;;;6.45;;
79761;SDS011;69249;42.122;24.734;2023-06-22T12:50:47;6.50;;;6.00;;
79761;SDS011;69249;42.122;24.734;2023-06-22T12:53:13;7.03;;;5.80;;
79761;SDS011;69249;42.122;24.734;2023-06-22T12:55:39;7.40;;;6.18;;
79761;SDS011;69249;42.122;24.734;2023-06-22T12:58:04;6.95;;;6.32;;
79761;SDS011;69249;42.122;24.734;2023-06-22T13:00:30;8.48;;;6.20;;
79761;SDS011;69249;42.122;24.734;2023-06-22T13:02:56;7.15;;;6.45;;
79761;SDS011;69249;42.122;24.734;2023-06-22T13:05:21;6.53;;;5.97;;
79761;SDS011;69249;42.122;24.734;2023-06-22T13:07:47;8.23;;;6.30;;
79761;SDS011;69249;42.122;24.734;2023-06-22T13:10:12;7.18;;;6.00;;
79761;SDS011;69249;42.122;24.734;2023-06-22T13:12:38;6.75;;;6.00;;
79761;SDS011;69249;42.122;24.734;2023-06-22T13:15:04;6.50;;;5.90;;
79761;SDS011;69249;42.122;24.734;2023-06-22T13:17:30;8.07;;;5.97;;
79761;SDS011;69249;42.122;24.734;2023-06-22T13:19:56;6.88;;;6.18;;
79761;SDS011;69249;42.122;24.734;2023-06-22T13:22:31;7.43;;;6.72;;
79761;SDS011;69249;42.122;24.734;2023-06-22T13:25:08;7.10;;;6.50;;
79761;SDS011;69249;42.122;24.734;2023-06-22T13:27:37;9.63;;;6.50;;
79761;SDS011;69249;42.122;24.734;2023-06-22T13:30:07;7.15;;;6.45;;
79761;SDS011;69249;42.122;24.734;2023-06-22T13:32:34;8.90;;;6.55;;
79761;SDS011;69249;42.122;24.734;2023-06-22T13:35:00;7.05;;;6.45;;
79761;SDS011;69249;42.122;24.734;2023-06-22T13:37:26;8.75;;;6.10;;
79761;SDS011;69249;42.122;24.734;2023-06-22T13:39:52;6.63;;;6.00;;
79761;SDS011;69249;42.122;24.734;2023-06-22T13:42:18;9.07;;;6.70;;
79761;SDS011;69249;42.122;24.734;2023-06-22T13:44:43;9.00;;;6.20;;
79761;SDS011;69249;42.122;24.734;2023-06-22T13:47:09;8.93;;;6.00;;
79761;SDS011;69249;42.122;24.734;2023-06-22T13:49:35;8.63;;;6.10;;
79761;SDS011;69249;42.122;24.734;2023-06-22T13:52:00;13.40;;;7.20;;
79761;SDS011;69249;42.122;24.734;2023-06-22T13:54:28;11.73;;;7.40;;
79761;SDS011;69249;42.122;24.734;2023-06-22T13:56:55;12.32;;;7.40;;
79761;SDS011;69249;42.122;24.734;2023-06-22T13:59:20;8.20;;;7.35;;
79761;SDS011;69249;42.122;24.734;2023-06-22T14:01:46;11.98;;;7.72;;
79761;SDS011;69249;42.122;24.734;2023-06-22T14:04:12;8.60;;;7.57;;
79761;SDS011;69249;42.122;24.734;2023-06-22T14:06:38;8.38;;;6.82;;
79761;SDS011;69249;42.122;24.734;2023-06-22T14:09:03;8.18;;;7.45;;
79761;SDS011;69249;42.122;24.734;2023-06-22T14:11:29;7.97;;;7.18;;
79761;SDS011;69249;42.122;24.734;2023-06-22T14:13:55;8.48;;;7.50;;
79761;SDS011;69249;42.122;24.734;2023-06-22T14:16:20;9.50;;;8.02;;
79761;SDS011;69249;42.122;24.734;2023-06-22T14:18:46;10.15;;;7.45;;
79761;SDS011;69249;42.122;24.734;2023-06-22T14:21:11;10.18;;;7.90;;
79761;SDS011;69249;42.122;24.734;2023-06-22T14:23:37;9.15;;;8.02;;
79761;SDS011;69249;42.122;24.734;2023-06-22T14:26:03;10.75;;;7.75;;
79761;SDS011;69249;42.122;24.734;2023-06-22T14:28:28;13.45;;;7.53;;
79761;SDS011;69249;42.122;24.734;2023-06-22T14:30:54;10.68;;;8.23;;